createdAt,value
2019-05-14T00:01:51.409Z,5.10
2019-05-14T00:04:22.004Z,5.00
2019-05-14T00:06:51.949Z,5.00
2019-05-14T00:09:22.586Z,4.90
2019-05-14T00:11:51.443Z,4.90
2019-05-14T00:14:22.111Z,4.80
2019-05-14T00:16:51.412Z,4.80
2019-05-14T00:19:21.562Z,4.70
2019-05-14T00:21:51.390Z,4.60
2019-05-14T00:24:21.706Z,4.60
2019-05-14T00:26:51.692Z,4.60
2019-05-14T00:29:22.032Z,4.50
2019-05-14T00:31:51.748Z,4.50
2019-05-14T00:34:21.471Z,4.40
2019-05-14T00:36:52.416Z,4.40
2019-05-14T00:39:22.936Z,4.30
2019-05-14T00:41:51.823Z,4.30
2019-05-14T00:44:21.560Z,4.20
2019-05-14T00:46:51.643Z,4.20
2019-05-14T00:49:21.230Z,4.10
2019-05-14T00:51:51.911Z,4.10
2019-05-14T00:54:21.619Z,4.00
2019-05-14T00:56:52.137Z,4.00
2019-05-14T00:59:41.681Z,3.90
2019-05-14T01:02:11.389Z,3.90
2019-05-14T01:04:42.869Z,3.90
2019-05-14T01:07:12.087Z,3.80
2019-05-14T01:09:42.061Z,3.80
2019-05-14T01:12:12.154Z,3.70
2019-05-14T01:14:42.488Z,3.70
2019-05-14T01:17:11.573Z,3.60
2019-05-14T01:19:42.481Z,3.60
2019-05-14T01:22:12.520Z,3.60
2019-05-14T01:24:41.947Z,3.50
2019-05-14T01:27:12.343Z,3.50
2019-05-14T01:29:42.491Z,3.50
2019-05-14T01:32:11.889Z,3.40
2019-05-14T01:34:42.032Z,3.40
2019-05-14T01:37:31.118Z,3.40
2019-05-14T01:40:01.167Z,3.30
2019-05-14T01:42:32.114Z,3.30
2019-05-14T01:45:02.595Z,3.20
2019-05-14T01:47:31.952Z,3.20
2019-05-14T01:50:02.131Z,3.20
2019-05-14T01:52:31.798Z,3.10
2019-05-14T01:55:02.146Z,3.10
2019-05-14T01:57:31.240Z,3.10
2019-05-14T02:00:02.265Z,3.10
2019-05-14T02:02:31.404Z,3.10
2019-05-14T02:05:02.039Z,3.00
2019-05-14T02:07:31.437Z,3.00
2019-05-14T02:10:01.200Z,3.00
2019-05-14T02:12:31.502Z,3.00
2019-05-14T02:15:01.910Z,2.90
2019-05-14T02:17:31.773Z,2.90
2019-05-14T02:20:21.576Z,2.90
2019-05-14T02:22:52.456Z,2.80
2019-05-14T02:25:21.683Z,2.80
2019-05-14T02:27:51.981Z,2.80
2019-05-14T02:30:52.469Z,2.80
2019-05-14T02:33:10.721Z,2.70
2019-05-14T02:35:39.947Z,2.70
2019-05-14T02:38:10.327Z,2.60
2019-05-14T02:40:40.417Z,2.60
2019-05-14T02:43:09.818Z,2.60
2019-05-14T02:45:58.669Z,2.60
2019-05-14T02:48:10.159Z,2.50
2019-05-14T02:50:39.579Z,2.50
2019-05-14T02:53:10.317Z,2.50
2019-05-14T02:55:39.327Z,2.40
2019-05-14T02:58:10.002Z,2.40
2019-05-14T03:00:40.849Z,2.40
2019-05-14T03:03:09.942Z,2.30
2019-05-14T03:05:40.108Z,2.30
2019-05-14T03:08:09.458Z,2.30
2019-05-14T03:10:40.268Z,2.30
2019-05-14T03:13:09.657Z,2.20
2019-05-14T03:15:39.214Z,2.20
2019-05-14T03:18:09.282Z,2.20
2019-05-14T03:20:39.212Z,2.20
2019-05-14T03:23:12.665Z,2.10
2019-05-14T03:26:00.585Z,2.10
2019-05-14T03:28:30.401Z,2.10
2019-05-14T03:31:03.063Z,2.10
2019-05-14T03:33:33.426Z,2.10
2019-05-14T03:36:08.437Z,2.10
2019-05-14T03:38:31.407Z,2.10
2019-05-14T03:41:00.642Z,2.10
2019-05-14T03:43:29.932Z,2.00
2019-05-14T03:45:59.536Z,2.00
2019-05-14T03:48:29.611Z,2.00
2019-05-14T03:51:00.185Z,2.00
2019-05-14T03:53:30.013Z,2.00
2019-05-14T03:56:00.227Z,2.00
2019-05-14T03:58:30.424Z,2.00
2019-05-14T04:01:01.072Z,2.00
2019-05-14T04:03:31.064Z,2.00
2019-05-14T04:06:00.412Z,1.90
2019-05-14T04:08:30.079Z,1.90
2019-05-14T04:10:59.427Z,1.90
2019-05-14T04:13:30.209Z,1.90
2019-05-14T04:16:00.346Z,1.90
2019-05-14T04:18:29.778Z,1.90
2019-05-14T04:20:59.674Z,1.90
2019-05-14T04:23:29.249Z,1.90
2019-05-14T04:26:00.545Z,1.90
2019-05-14T04:28:29.940Z,2.00
2019-05-14T04:30:59.621Z,2.00
2019-05-14T04:33:30.611Z,2.00
2019-05-14T04:36:00.199Z,2.00
2019-05-14T04:38:30.272Z,2.10
2019-05-14T04:41:00.154Z,2.10
2019-05-14T04:43:29.729Z,2.20
2019-05-14T04:45:59.549Z,2.20
2019-05-14T04:48:36.567Z,2.30
2019-05-14T04:51:00.395Z,2.30
2019-05-14T04:53:30.968Z,2.40
2019-05-14T04:56:00.423Z,2.50
2019-05-14T04:58:29.928Z,2.60
2019-05-14T05:01:00.455Z,2.60
2019-05-14T05:03:31.541Z,2.70
2019-05-14T05:06:00.548Z,2.80
2019-05-14T05:08:30.699Z,2.90
2019-05-14T05:11:02.022Z,3.00
2019-05-14T05:13:30.825Z,3.10
2019-05-14T05:16:14.404Z,3.20
2019-05-14T05:18:43.279Z,3.20
2019-05-14T05:21:12.400Z,3.40
2019-05-14T05:23:41.561Z,3.40
2019-05-14T05:26:10.697Z,3.60
2019-05-14T05:28:39.781Z,3.70
2019-05-14T05:31:09.449Z,3.80
2019-05-14T05:33:39.515Z,3.90
2019-05-14T05:36:09.383Z,4.00
2019-05-14T05:38:39.646Z,4.10
2019-05-14T05:41:09.174Z,4.30
2019-05-14T05:43:39.362Z,4.40
2019-05-14T05:46:08.884Z,4.50
2019-05-14T05:48:38.828Z,4.70
2019-05-14T05:51:09.176Z,4.80
2019-05-14T05:53:39.487Z,4.90
2019-05-14T05:56:09.128Z,5.00
2019-05-14T05:58:39.705Z,5.10
2019-05-14T06:01:09.831Z,5.20
2019-05-14T06:03:39.577Z,5.40
2019-05-14T06:06:13.639Z,5.50
2019-05-14T06:08:39.299Z,5.70
2019-05-14T06:11:08.561Z,5.80
2019-05-14T06:13:39.188Z,5.90
2019-05-14T06:16:09.590Z,6.10
2019-05-14T06:18:39.409Z,6.20
2019-05-14T06:21:09.202Z,6.40
2019-05-14T06:23:38.723Z,6.70
2019-05-14T06:26:11.433Z,6.90
2019-05-14T06:28:40.964Z,7.10
2019-05-14T06:31:09.872Z,7.40
2019-05-14T06:33:39.617Z,7.60
2019-05-14T06:36:08.937Z,7.90
2019-05-14T06:38:38.872Z,8.20
2019-05-14T06:41:08.619Z,8.40
2019-05-14T06:43:39.253Z,8.60
2019-05-14T06:46:09.286Z,8.80
2019-05-14T06:48:39.558Z,9.10
2019-05-14T06:51:09.079Z,9.30
2019-05-14T06:53:39.311Z,9.50
2019-05-14T06:56:08.678Z,9.60
2019-05-14T06:58:39.011Z,9.80
2019-05-14T07:01:09.659Z,10.00
2019-05-14T07:03:38.755Z,10.20
2019-05-14T07:06:09.076Z,10.30
2019-05-14T07:08:39.453Z,10.50
2019-05-14T07:11:08.694Z,10.60
2019-05-14T07:13:38.527Z,10.80
2019-05-14T07:16:09.026Z,11.00
2019-05-14T07:18:49.629Z,11.10
2019-05-14T07:21:08.899Z,11.30
2019-05-14T07:23:38.531Z,11.50
2019-05-14T07:26:08.400Z,11.60
2019-05-14T07:28:42.166Z,11.80
2019-05-14T07:31:09.861Z,11.90
2019-05-14T07:33:39.176Z,12.00
2019-05-14T07:36:08.786Z,12.10
2019-05-14T07:38:39.151Z,12.20
2019-05-14T07:41:09.327Z,12.40
2019-05-14T07:43:39.306Z,12.60
2019-05-14T07:46:08.671Z,12.70
2019-05-14T07:48:39.168Z,12.80
2019-05-14T07:51:09.111Z,12.90
2019-05-14T07:53:41.619Z,13.10
2019-05-14T07:56:09.434Z,13.20
2019-05-14T07:58:38.917Z,13.30
2019-05-14T08:01:09.384Z,13.40
2019-05-14T08:03:39.037Z,13.60
2019-05-14T08:06:08.446Z,13.70
2019-05-14T08:08:38.557Z,13.90
2019-05-14T08:11:08.619Z,14.00
2019-05-14T08:13:39.104Z,14.10
2019-05-14T08:16:08.944Z,14.20
2019-05-14T08:18:39.525Z,14.40
2019-05-14T08:21:09.499Z,14.50
2019-05-14T08:23:39.236Z,14.70
2019-05-14T08:26:08.900Z,14.80
2019-05-14T08:28:38.454Z,14.90
2019-05-14T08:31:09.405Z,14.90
2019-05-14T08:33:39.707Z,15.10
2019-05-14T08:36:09.004Z,15.20
2019-05-14T08:38:38.382Z,15.40
2019-05-14T08:41:08.456Z,15.60
2019-05-14T08:43:39.664Z,15.70
2019-05-14T08:46:08.373Z,15.90
2019-05-14T08:48:38.933Z,16.10
2019-05-14T08:51:09.211Z,16.40
2019-05-14T08:53:38.757Z,16.50
2019-05-14T08:56:08.752Z,16.60
2019-05-14T08:58:39.038Z,16.70
2019-05-14T09:01:08.386Z,16.90
2019-05-14T09:03:39.272Z,17.00
2019-05-14T09:06:09.171Z,17.10
2019-05-14T09:08:39.066Z,17.20
2019-05-14T09:11:09.988Z,17.10
2019-05-14T09:13:39.398Z,17.00
2019-05-14T09:16:09.200Z,16.90
2019-05-14T09:18:38.769Z,16.80
2019-05-14T09:21:08.649Z,16.60
2019-05-14T09:23:39.187Z,16.70
2019-05-14T09:26:09.630Z,16.90
2019-05-14T09:28:39.406Z,17.20
2019-05-14T09:31:08.917Z,17.40
2019-05-14T09:33:38.975Z,17.70
2019-05-14T09:36:17.991Z,17.90
2019-05-14T09:38:42.206Z,18.20
2019-05-14T09:41:14.899Z,18.50
2019-05-14T09:43:39.905Z,18.70
2019-05-14T09:46:09.161Z,18.60
2019-05-14T09:48:38.258Z,18.40
2019-05-14T09:51:09.233Z,18.30
2019-05-14T09:53:38.306Z,18.40
2019-05-14T09:56:09.074Z,18.60
2019-05-14T09:58:38.702Z,18.80
2019-05-14T10:01:08.530Z,19.00
2019-05-14T10:03:39.141Z,18.90
2019-05-14T10:06:09.678Z,18.90
2019-05-14T10:08:39.209Z,19.00
2019-05-14T10:11:08.284Z,19.20
2019-05-14T10:13:39.271Z,19.20
2019-05-14T10:16:09.526Z,19.30
2019-05-14T10:18:38.830Z,19.50
2019-05-14T10:21:08.646Z,19.80
2019-05-14T10:23:38.981Z,19.90
2019-05-14T10:26:09.174Z,20.10
2019-05-14T10:28:41.278Z,20.40
2019-05-14T10:31:10.448Z,20.60
2019-05-14T10:33:39.650Z,20.70
2019-05-14T10:36:09.211Z,20.80
2019-05-14T10:38:38.714Z,20.90
2019-05-14T10:41:09.064Z,20.90
2019-05-14T10:43:39.180Z,20.90
2019-05-14T10:46:09.125Z,20.40
2019-05-14T10:48:39.585Z,20.00
2019-05-14T10:51:09.834Z,19.70
2019-05-14T10:53:39.204Z,19.40
2019-05-14T10:56:09.880Z,19.20
2019-05-14T10:58:38.584Z,19.30
2019-05-14T11:01:11.367Z,19.50
2019-05-14T11:03:38.947Z,19.80
2019-05-14T11:06:11.362Z,20.10
2019-05-14T11:08:39.136Z,20.30
2019-05-14T11:11:10.610Z,20.50
2019-05-14T11:13:39.568Z,20.70
2019-05-14T11:16:08.875Z,21.00
2019-05-14T11:18:39.958Z,21.30
2019-05-14T11:21:21.507Z,21.60
2019-05-14T11:23:39.204Z,22.00
2019-05-14T11:26:09.214Z,22.20
2019-05-14T11:28:39.475Z,22.50
2019-05-14T11:31:09.280Z,22.80
2019-05-14T11:33:39.047Z,22.60
2019-05-14T11:36:09.336Z,22.30
2019-05-14T11:38:38.596Z,21.90
2019-05-14T11:41:09.617Z,21.50
2019-05-14T11:43:39.670Z,21.20
2019-05-14T11:46:09.174Z,20.80
2019-05-14T11:48:39.318Z,20.40
2019-05-14T11:51:09.188Z,20.30
2019-05-14T11:53:40.166Z,20.40
2019-05-14T11:56:09.094Z,20.60
2019-05-14T11:58:37.980Z,20.70
2019-05-14T12:01:09.803Z,20.90
2019-05-14T12:03:39.600Z,21.30
2019-05-14T12:06:09.866Z,21.60
2019-05-14T12:08:41.879Z,21.60
2019-05-14T12:11:10.075Z,21.70
2019-05-14T12:13:39.631Z,21.70
2019-05-14T12:16:08.741Z,21.50
2019-05-14T12:18:41.750Z,21.20
2019-05-14T12:21:08.973Z,20.80
2019-05-14T12:23:39.355Z,20.70
2019-05-14T12:26:09.497Z,20.90
2019-05-14T12:28:38.857Z,21.30
2019-05-14T12:31:09.245Z,21.60
2019-05-14T12:33:39.804Z,21.50
2019-05-14T12:36:10.299Z,21.30
2019-05-14T12:38:39.678Z,21.00
2019-05-14T12:41:09.333Z,20.70
2019-05-14T12:43:39.701Z,20.70
2019-05-14T12:46:10.430Z,20.80
2019-05-14T12:48:39.589Z,21.00
2019-05-14T12:51:09.146Z,21.10
2019-05-14T12:53:39.623Z,21.10
2019-05-14T12:56:08.917Z,21.10
2019-05-14T12:58:42.839Z,21.00
2019-05-14T13:01:09.504Z,21.20
2019-05-14T13:03:38.788Z,21.40
2019-05-14T13:06:10.115Z,21.80
2019-05-14T13:08:38.905Z,22.10
2019-05-14T13:11:09.763Z,22.40
2019-05-14T13:13:42.295Z,22.60
2019-05-14T13:16:09.091Z,22.80
2019-05-14T13:18:38.754Z,22.90
2019-05-14T13:21:07.836Z,22.90
2019-05-14T13:23:38.354Z,22.90
2019-05-14T13:26:10.389Z,23.10
2019-05-14T13:28:39.697Z,23.20
2019-05-14T13:31:08.910Z,23.30
2019-05-14T13:33:39.328Z,23.50
2019-05-14T13:36:08.373Z,23.60
2019-05-14T13:38:39.699Z,23.70
2019-05-14T13:41:08.699Z,23.70
2019-05-14T13:43:39.191Z,23.50
2019-05-14T13:46:10.489Z,23.40
2019-05-14T13:48:43.221Z,23.40
2019-05-14T13:51:09.418Z,23.40
2019-05-14T13:53:39.041Z,23.50
2019-05-14T13:56:09.134Z,23.60
2019-05-14T13:58:38.544Z,23.70
2019-05-14T14:01:09.936Z,23.80
2019-05-14T14:03:46.760Z,23.90
2019-05-14T14:06:10.315Z,24.00
2019-05-14T14:08:42.307Z,24.10
2019-05-14T14:11:12.663Z,24.10
2019-05-14T14:13:40.585Z,24.10
2019-05-14T14:16:14.579Z,24.10
2019-05-14T14:18:40.485Z,24.00
2019-05-14T14:21:09.588Z,24.00
2019-05-14T14:23:39.285Z,24.00
2019-05-14T14:26:09.413Z,24.00
2019-05-14T14:28:39.798Z,24.10
2019-05-14T14:31:10.985Z,23.70
2019-05-14T14:33:39.816Z,23.30
2019-05-14T14:36:09.114Z,23.10
2019-05-14T14:38:40.215Z,22.90
2019-05-14T14:41:09.999Z,22.60
2019-05-14T14:43:43.762Z,22.50
2019-05-14T14:46:14.043Z,22.50
2019-05-14T14:48:41.181Z,22.50
2019-05-14T14:51:10.100Z,22.50
2019-05-14T14:53:52.316Z,22.50
2019-05-14T14:56:09.980Z,22.40
2019-05-14T14:58:39.362Z,22.40
2019-05-14T15:01:08.934Z,22.40
2019-05-14T15:03:38.191Z,22.60
2019-05-14T15:06:09.711Z,22.60
2019-05-14T15:08:38.914Z,22.50
2019-05-14T15:11:08.867Z,22.30
2019-05-14T15:13:39.023Z,22.10
2019-05-14T15:16:13.287Z,21.90
2019-05-14T15:18:38.884Z,21.90
2019-05-14T15:21:09.735Z,21.90
2019-05-14T15:23:43.275Z,21.80
2019-05-14T15:26:12.078Z,21.70
2019-05-14T15:28:41.252Z,21.60
2019-05-14T15:31:10.172Z,21.50
2019-05-14T15:33:39.307Z,21.40
2019-05-14T15:36:09.067Z,21.30
2019-05-14T15:38:39.731Z,21.30
2019-05-14T15:41:13.262Z,21.20
2019-05-14T15:43:39.648Z,21.00
2019-05-14T15:46:08.874Z,20.80
2019-05-14T15:48:39.453Z,20.60
2019-05-14T15:51:11.535Z,20.40
2019-05-14T15:53:39.036Z,20.10
2019-05-14T15:56:08.228Z,19.90
2019-05-14T15:58:38.983Z,19.80
2019-05-14T16:01:09.937Z,19.70
2019-05-14T16:03:41.484Z,19.60
2019-05-14T16:06:09.579Z,19.40
2019-05-14T16:08:40.172Z,19.30
2019-05-14T16:11:11.330Z,19.20
2019-05-14T16:13:40.217Z,19.00
2019-05-14T16:16:10.674Z,18.80
2019-05-14T16:18:39.892Z,18.60
2019-05-14T16:21:10.605Z,18.50
2019-05-14T16:23:39.832Z,18.50
2019-05-14T16:26:08.960Z,18.50
2019-05-14T16:28:39.542Z,18.40
2019-05-14T16:31:08.810Z,18.30
2019-05-14T16:33:40.379Z,18.30
2019-05-14T16:36:08.922Z,18.30
2019-05-14T16:38:39.404Z,18.30
2019-05-14T16:41:08.625Z,18.30
2019-05-14T16:43:39.888Z,18.30
2019-05-14T16:46:09.458Z,18.30
2019-05-14T16:48:39.668Z,18.20
2019-05-14T16:51:09.181Z,18.10
2019-05-14T16:53:38.373Z,18.10
2019-05-14T16:56:08.313Z,18.10
2019-05-14T16:58:38.660Z,18.10
2019-05-14T17:01:09.792Z,18.10
2019-05-14T17:03:39.649Z,18.10
2019-05-14T17:06:11.376Z,18.00
2019-05-14T17:08:40.270Z,17.80
2019-05-14T17:11:09.504Z,17.50
2019-05-14T17:13:38.579Z,17.30
2019-05-14T17:16:08.523Z,17.00
2019-05-14T17:18:37.896Z,16.80
2019-05-14T17:21:09.217Z,16.60
2019-05-14T17:23:39.293Z,16.40
2019-05-14T17:26:09.002Z,16.30
2019-05-14T17:28:40.454Z,16.30
2019-05-14T17:31:08.779Z,16.30
2019-05-14T17:33:39.514Z,16.30
2019-05-14T17:36:09.501Z,16.20
2019-05-14T17:38:39.253Z,16.20
2019-05-14T17:41:09.422Z,16.10
2019-05-14T17:43:39.441Z,16.00
2019-05-14T17:46:10.125Z,16.00
2019-05-14T17:48:39.804Z,15.90
2019-05-14T17:51:09.450Z,15.90
2019-05-14T17:53:39.194Z,15.80
2019-05-14T17:56:08.874Z,15.70
2019-05-14T17:58:38.585Z,15.60
2019-05-14T18:01:09.098Z,15.50
2019-05-14T18:03:39.977Z,15.40
2019-05-14T18:06:09.363Z,15.30
2019-05-14T18:08:38.387Z,15.20
2019-05-14T18:11:08.865Z,15.10
2019-05-14T18:13:39.124Z,15.00
2019-05-14T18:16:09.125Z,14.90
2019-05-14T18:18:38.200Z,14.80
2019-05-14T18:21:09.425Z,14.60
2019-05-14T18:23:41.762Z,14.50
2019-05-14T18:26:09.476Z,14.40
2019-05-14T18:28:38.737Z,14.20
2019-05-14T18:31:09.405Z,14.10
2019-05-14T18:33:39.918Z,14.00
2019-05-14T18:36:09.706Z,13.90
2019-05-14T18:38:39.239Z,13.80
2019-05-14T18:41:08.640Z,13.60
2019-05-14T18:43:37.714Z,13.40
2019-05-14T18:46:08.490Z,13.30
2019-05-14T18:48:37.754Z,13.10
2019-05-14T18:51:08.944Z,13.00
2019-05-14T18:53:38.471Z,12.80
2019-05-14T18:56:19.377Z,12.70
2019-05-14T18:58:39.024Z,12.60
2019-05-14T19:01:08.253Z,12.50
2019-05-14T19:03:39.585Z,12.50
2019-05-14T19:06:08.236Z,12.40
2019-05-14T19:08:39.499Z,12.30
2019-05-14T19:11:08.307Z,12.20
2019-05-14T19:13:38.998Z,12.20
2019-05-14T19:16:08.314Z,12.10
2019-05-14T19:18:38.552Z,12.00
2019-05-14T19:21:08.854Z,11.90
2019-05-14T19:23:38.436Z,11.80
2019-05-14T19:26:09.563Z,11.80
2019-05-14T19:28:40.115Z,11.70
2019-05-14T19:31:09.357Z,11.60
2019-05-14T19:33:38.721Z,11.50
2019-05-14T19:36:08.864Z,11.40
2019-05-14T19:38:48.314Z,11.30
2019-05-14T19:41:23.219Z,11.20
2019-05-14T19:44:11.904Z,11.00
2019-05-14T19:46:41.081Z,11.00
2019-05-14T19:49:10.982Z,10.80
2019-05-14T19:51:40.904Z,10.80
2019-05-14T19:54:09.792Z,10.70
2019-05-14T19:56:51.805Z,10.60
2019-05-14T19:59:09.425Z,10.50
2019-05-14T20:01:38.681Z,10.40
2019-05-14T20:04:09.603Z,10.30
2019-05-14T20:06:41.005Z,10.20
2019-05-14T20:09:10.015Z,10.10
2019-05-14T20:11:39.890Z,10.00
2019-05-14T20:14:08.902Z,9.80
2019-05-14T20:16:39.998Z,9.70
2019-05-14T20:19:11.001Z,9.60
2019-05-14T20:22:32.752Z,9.50
2019-05-14T20:25:01.760Z,9.40
2019-05-14T20:27:30.635Z,9.20
2019-05-14T20:29:59.829Z,9.10
2019-05-14T20:32:28.779Z,9.10
2019-05-14T20:34:58.018Z,8.90
2019-05-14T20:37:28.997Z,8.80
2019-05-14T20:39:59.101Z,8.70
2019-05-14T20:42:28.973Z,8.60
2019-05-14T20:44:58.208Z,8.50
2019-05-14T20:47:28.183Z,8.40
2019-05-14T20:50:49.040Z,8.30
2019-05-14T20:53:18.702Z,8.20
2019-05-14T20:55:47.707Z,8.20
2019-05-14T20:58:19.595Z,8.10
2019-05-14T21:00:48.481Z,8.10
2019-05-14T21:03:18.674Z,8.00
2019-05-14T21:05:49.078Z,7.90
2019-05-14T21:08:18.813Z,7.80
2019-05-14T21:10:49.352Z,7.80
2019-05-14T21:13:18.697Z,7.70
2019-05-14T21:15:48.295Z,7.70
2019-05-14T21:18:18.892Z,7.60
2019-05-14T21:20:48.821Z,7.50
2019-05-14T21:23:18.417Z,7.50
2019-05-14T21:29:16.313Z,7.30
2019-05-14T21:31:45.179Z,7.20
2019-05-14T21:34:14.321Z,7.20
2019-05-14T21:36:45.876Z,7.10
2019-05-14T21:39:14.728Z,7.00
2019-05-14T21:41:43.597Z,7.00
2019-05-14T21:44:12.397Z,6.90
2019-05-14T21:46:41.201Z,6.90
2019-05-14T21:49:39.014Z,6.80
2019-05-14T21:52:09.029Z,6.80
2019-05-14T21:54:39.593Z,6.70
2019-05-14T21:57:11.669Z,6.70
2019-05-14T21:59:39.337Z,6.60
2019-05-14T22:02:08.864Z,6.60
2019-05-14T22:04:38.503Z,6.50
2019-05-14T22:07:09.064Z,6.50
2019-05-14T22:09:58.288Z,6.50
2019-05-14T22:12:48.812Z,6.40
2019-05-14T22:15:18.549Z,6.40
2019-05-14T22:17:49.157Z,6.40
2019-05-14T22:20:19.180Z,6.30
2019-05-14T22:22:48.501Z,6.30
2019-05-14T22:25:39.156Z,6.20
2019-05-14T22:28:15.001Z,6.20
2019-05-14T22:30:39.448Z,6.10
2019-05-14T22:33:28.461Z,6.10
2019-05-14T22:35:58.110Z,6.00
2019-05-14T22:38:29.366Z,5.90
2019-05-14T22:40:59.192Z,5.90
2019-05-14T22:43:28.788Z,5.90
2019-05-14T22:45:59.050Z,5.90
2019-05-14T22:48:28.185Z,5.80
2019-05-14T22:51:10.952Z,5.80
2019-05-14T22:53:39.873Z,5.70
2019-05-14T22:56:08.742Z,5.70
2019-05-14T22:58:38.255Z,5.70
2019-05-14T23:01:14.903Z,5.60
2019-05-14T23:03:39.589Z,5.60
2019-05-14T23:06:09.120Z,5.50
2019-05-14T23:08:39.161Z,5.50
2019-05-14T23:11:08.780Z,5.40
2019-05-14T23:13:39.151Z,5.50
2019-05-14T23:16:08.352Z,5.40
2019-05-14T23:18:38.028Z,5.40
2019-05-14T23:21:13.173Z,5.40
2019-05-14T23:23:41.958Z,5.30
2019-05-14T23:26:11.103Z,5.30
2019-05-14T23:28:45.470Z,5.20
2019-05-14T23:31:10.499Z,5.20
2019-05-14T23:33:39.347Z,5.20
2019-05-14T23:36:08.767Z,5.10
2019-05-14T23:38:38.708Z,5.10
2019-05-14T23:41:08.693Z,5.10
2019-05-14T23:43:39.186Z,5.00
2019-05-14T23:46:09.373Z,5.00
2019-05-14T23:48:39.422Z,4.90
2019-05-14T23:51:08.724Z,4.90
2019-05-14T23:53:39.256Z,4.90
2019-05-14T23:56:08.813Z,4.80
2019-05-14T23:58:37.797Z,4.80
